Aérodrome :
LOGIN :

S'inscrire | Disclaimer

   EN    FR    IT 

 










Légende :    VFR   VFR Marginal   IFR   IFR Intensif   IFR Très Intensif
Visi : 
Plafond : 
>= 8 km
>= 3000ft
5 à 8 km
1000 à 3000 ft
1500m à 5 km
500 à 1000 ft
800 à 1500m
200 à 500 ft
< 800m
< 200 ft
Symboles :   Orages  Brouillard  Fortes neiges  Fortes précipitations  Vent > 20 kt
SIGMETs :   Divers  Orages  Givrage  Turbulence  Onde Orograph.  Cendres Volcan.






- Altitude de l'aérodrome : 870 ft
- Code IATA : ETZ


LFJL - Metz Nancy Lorraine

DERNIER METAR :
  • 182230Z AUTO 09008KT CAVOK 20/13 Q1021 NOSIG

METARs EXPIRÉS :
  • 182200Z AUTO 08009KT CAVOK 20/13 Q1021 NOSIG
  • 182130Z AUTO 08009KT CAVOK 21/13 Q1021 NOSIG
  • 182100Z AUTO 08008KT CAVOK 21/13 Q1021 NOSIG
  • 182030Z AUTO 08008KT CAVOK 21/13 Q1021 NOSIG
  • 182000Z AUTO 08008KT CAVOK 21/14 Q1021 NOSIG
  • 181930Z AUTO 08008KT CAVOK 22/14 Q1021 NOSIG
  • 181900Z AUTO 08007KT CAVOK 24/14 Q1020 NOSIG
  • 181830Z AUTO 08005KT CAVOK 25/15 Q1020 NOSIG
  • 181800Z AUTO 08007KT CAVOK 27/14 Q1020 NOSIG

TAF TAF LFJL
Valide du 18 à 18h jusqu'au 19 à 18h UTC


181700Z 1818/1918 06005KT CAVOK



MET'MAP, la Météo Aéronautique d'un coup d'oeil ! - Copyright ORBIFLY Décembre 2007 - Disclaimer

ORBIFLY MET'MAP TEAM :

Programmation & Développement : Alexandra Zaïnal
Sur une idée originale de : Baudouin d'Aumeries
Soutien technique & logistique : Manuel Goepfert
Assistance : Marc-Olivier Méhu




SOURCES & CREDITS :

   NOAA